Time;durP1;ratioP1;P1;durP2;ratioP2;P2;SDS_P1;SDS_P2;PMS_P1;PMS_P2;Temp;Humidity;BMP_temperature;BMP_pressure;BME280_temperature;BME280_humidity;BME280_pressure;Samples;Min_cycle;Max_cycle;Signal;HPM_P1;HPM_P2
2023/09/27 00:07:41;;;;;;;19.5;11.2;;;;;;;;;;;;;-83
2023/09/27 00:37:36;;;;;;;16.3;10.2;;;;;;;;;;;;;-82
2023/09/27 01:07:38;;;;;;;17.1;11;;;;;;;;;;;;;-84
2023/09/27 01:37:39;;;;;;;19.4;13;;;;;;;;;;;;;-80
2023/09/27 02:07:43;;;;;;;21.3;16;;;;;;;;;;;;;-78
2023/09/27 02:37:51;;;;;;;23;15.7;;;;;;;;;;;;;-78
2023/09/27 03:07:44;;;;;;;24.6;15.9;;;;;;;;;;;;;-79
2023/09/27 03:37:48;;;;;;;20.3;13.6;;;;;;;;;;;;;-79
2023/09/27 04:07:51;;;;;;;24.2;14.9;;;;;;;;;;;;;-79
2023/09/27 04:37:48;;;;;;;20.7;12.4;;;;;;;;;;;;;-80
2023/09/27 05:07:50;;;;;;;34;17.7;;;;;;;;;;;;;-79
2023/09/27 05:37:55;;;;;;;47.9;23.6;;;;;;;;;;;;;-81
2023/09/27 06:07:55;;;;;;;63.7;31.6;;;;;;;;;;;;;-80
2023/09/27 06:38:01;;;;;;;51.9;29.5;;;;;;;;;;;;;-80
2023/09/27 07:07:58;;;;;;;42.8;26.3;;;;;;;;;;;;;-81
2023/09/27 07:38:00;;;;;;;44.1;26.8;;;;;;;;;;;;;-83
2023/09/27 08:07:59;;;;;;;38.2;23.9;;;;;;;;;;;;;-80
2023/09/27 08:38:06;;;;;;;36;20.7;;;;;;;;;;;;;-80
2023/09/27 09:08:07;;;;;;;35;21.7;;;;;;;;;;;;;-78
2023/09/27 09:38:06;;;;;;;29.6;19.3;;;;;;;;;;;;;-78
2023/09/27 10:08:09;;;;;;;31.6;18.7;;;;;;;;;;;;;-78
2023/09/27 10:38:12;;;;;;;23.7;14.9;;;;;;;;;;;;;-78
2023/09/27 11:08:14;;;;;;;12.8;6.2;;;;;;;;;;;;;-78
2023/09/27 11:38:19;;;;;;;15;6.5;;;;;;;;;;;;;-77
2023/09/27 12:08:22;;;;;;;15.4;9.1;;;;;;;;;;;;;-80
2023/09/27 12:38:26;;;;;;;17;11.7;;;;;;;;;;;;;-78
2023/09/27 13:08:28;;;;;;;21.5;12.5;;;;;;;;;;;;;-79
2023/09/27 13:38:35;;;;;;;19.4;12.1;;;;;;;;;;;;;-80
2023/09/27 14:08:37;;;;;;;16.6;9.2;;;;;;;;;;;;;-79
2023/09/27 14:38:45;;;;;;;14.4;7.4;;;;;;;;;;;;;-78
2023/09/27 15:08:47;;;;;;;10.7;6.2;;;;;;;;;;;;;-78
2023/09/27 15:38:53;;;;;;;9.7;5.9;;;;;;;;;;;;;-80
2023/09/27 16:08:52;;;;;;;10.2;5.3;;;;;;;;;;;;;-80
2023/09/27 16:38:59;;;;;;;10;5.9;;;;;;;;;;;;;-79
2023/09/27 17:09:04;;;;;;;11.6;7.5;;;;;;;;;;;;;-83
2023/09/27 17:39:10;;;;;;;17.2;10.5;;;;;;;;;;;;;-79
2023/09/27 18:09:08;;;;;;;18.6;11.5;;;;;;;;;;;;;-79
2023/09/27 18:39:09;;;;;;;17;10.8;;;;;;;;;;;;;-79
2023/09/27 19:09:14;;;;;;;14.7;10.3;;;;;;;;;;;;;-80
2023/09/27 19:39:29;;;;;;;16.7;9.7;;;;;;;;;;;;;-78
2023/09/27 20:09:28;;;;;;;16.2;10.2;;;;;;;;;;;;;-80
2023/09/27 20:39:30;;;;;;;14.4;7.9;;;;;;;;;;;;;-80
2023/09/27 22:09:29;;;;;;;14.4;8.8;;;;;;;;;;;;;-79
2023/09/27 22:39:31;;;;;;;16.9;10;;;;;;;;;;;;;-81
2023/09/27 23:09:40;;;;;;;13.8;5.2;;;;;;;;;;;;;-80
2023/09/27 23:39:47;;;;;;;10.2;5.5;;;;;;;;;;;;;-79
